sensor_id;sensor_type;location;lat;lon;timestamp;pressure;altitude;pressure_sealevel;temperature;humidity
77090;BME280;66028;53.558;9.950;2024-01-10T00:01:03;103345.56;;;-5.09;91.32
77090;BME280;66028;53.558;9.950;2024-01-10T00:03:28;103350.34;;;-5.17;91.31
77090;BME280;66028;53.558;9.950;2024-01-10T00:05:53;103345.78;;;-5.13;91.26
77090;BME280;66028;53.558;9.950;2024-01-10T00:08:19;103344.06;;;-5.14;91.29
77090;BME280;66028;53.558;9.950;2024-01-10T00:10:44;103339.72;;;-5.15;91.03
77090;BME280;66028;53.558;9.950;2024-01-10T00:13:09;103340.63;;;-5.16;91.82
77090;BME280;66028;53.558;9.950;2024-01-10T00:15:34;103340.56;;;-5.15;91.18
77090;BME280;66028;53.558;9.950;2024-01-10T00:18:00;103339.97;;;-5.20;91.45
77090;BME280;66028;53.558;9.950;2024-01-10T00:20:26;103342.75;;;-5.23;91.30
77090;BME280;66028;53.558;9.950;2024-01-10T00:22:51;103335.59;;;-5.21;91.32
77090;BME280;66028;53.558;9.950;2024-01-10T00:25:16;103337.75;;;-5.29;91.25
77090;BME280;66028;53.558;9.950;2024-01-10T00:27:42;103335.09;;;-5.29;91.55
77090;BME280;66028;53.558;9.950;2024-01-10T00:30:07;103342.50;;;-5.18;91.66
77090;BME280;66028;53.558;9.950;2024-01-10T00:32:33;103334.31;;;-5.31;91.82
77090;BME280;66028;53.558;9.950;2024-01-10T00:34:59;103342.81;;;-5.24;91.76
77090;BME280;66028;53.558;9.950;2024-01-10T00:37:26;103342.03;;;-5.26;91.71
77090;BME280;66028;53.558;9.950;2024-01-10T00:39:52;103344.53;;;-5.23;91.69
77090;BME280;66028;53.558;9.950;2024-01-10T00:42:17;103343.53;;;-5.21;91.45
77090;BME280;66028;53.558;9.950;2024-01-10T00:44:43;103346.50;;;-5.10;91.61
77090;BME280;66028;53.558;9.950;2024-01-10T00:47:08;103340.59;;;-4.97;91.23
77090;BME280;66028;53.558;9.950;2024-01-10T00:49:33;103339.50;;;-4.93;91.00
77090;BME280;66028;53.558;9.950;2024-01-10T00:51:59;103336.56;;;-4.87;90.74
77090;BME280;66028;53.558;9.950;2024-01-10T00:54:24;103342.78;;;-4.88;91.02
77090;BME280;66028;53.558;9.950;2024-01-10T00:56:49;103332.06;;;-4.85;90.73
77090;BME280;66028;53.558;9.950;2024-01-10T00:59:15;103334.53;;;-4.82;90.12
77090;BME280;66028;53.558;9.950;2024-01-10T01:01:40;103347.22;;;-4.89;90.38
77090;BME280;66028;53.558;9.950;2024-01-10T01:04:06;103337.50;;;-4.88;90.83
77090;BME280;66028;53.558;9.950;2024-01-10T01:06:31;103337.28;;;-4.84;90.43
77090;BME280;66028;53.558;9.950;2024-01-10T01:08:56;103333.78;;;-4.84;90.60
77090;BME280;66028;53.558;9.950;2024-01-10T01:11:23;103327.63;;;-5.02;90.40
77090;BME280;66028;53.558;9.950;2024-01-10T01:13:48;103327.84;;;-5.07;90.12
77090;BME280;66028;53.558;9.950;2024-01-10T01:16:14;103342.16;;;-5.11;89.70
77090;BME280;66028;53.558;9.950;2024-01-10T01:18:39;103341.75;;;-5.20;89.81
77090;BME280;66028;53.558;9.950;2024-01-10T01:21:04;103338.31;;;-5.22;89.96
77090;BME280;66028;53.558;9.950;2024-01-10T01:23:29;103336.47;;;-5.20;90.34
77090;BME280;66028;53.558;9.950;2024-01-10T01:25:55;103337.75;;;-5.29;90.01
77090;BME280;66028;53.558;9.950;2024-01-10T01:28:20;103343.19;;;-5.32;89.90
77090;BME280;66028;53.558;9.950;2024-01-10T01:30:45;103335.34;;;-5.33;90.28
77090;BME280;66028;53.558;9.950;2024-01-10T01:33:10;103327.34;;;-5.32;90.28
77090;BME280;66028;53.558;9.950;2024-01-10T01:35:36;103328.69;;;-5.42;89.91
77090;BME280;66028;53.558;9.950;2024-01-10T01:38:01;103331.13;;;-5.37;90.09
77090;BME280;66028;53.558;9.950;2024-01-10T01:40:26;103330.94;;;-5.52;90.16
77090;BME280;66028;53.558;9.950;2024-01-10T01:42:51;103337.38;;;-5.57;90.48
77090;BME280;66028;53.558;9.950;2024-01-10T01:45:18;103335.59;;;-5.57;90.74
77090;BME280;66028;53.558;9.950;2024-01-10T01:47:43;103336.22;;;-5.52;90.66
77090;BME280;66028;53.558;9.950;2024-01-10T01:50:10;103336.00;;;-5.47;90.65
77090;BME280;66028;53.558;9.950;2024-01-10T01:52:36;103336.00;;;-5.47;90.68
77090;BME280;66028;53.558;9.950;2024-01-10T01:55:01;103333.50;;;-5.50;90.94
77090;BME280;66028;53.558;9.950;2024-01-10T01:57:27;103336.28;;;-5.53;90.96
77090;BME280;66028;53.558;9.950;2024-01-10T01:59:53;103334.06;;;-5.62;91.02
77090;BME280;66028;53.558;9.950;2024-01-10T02:02:18;103333.22;;;-5.63;91.06
77090;BME280;66028;53.558;9.950;2024-01-10T02:04:46;103329.78;;;-5.65;91.46
77090;BME280;66028;53.558;9.950;2024-01-10T02:07:11;103329.16;;;-5.70;91.26
77090;BME280;66028;53.558;9.950;2024-01-10T02:09:37;103333.16;;;-5.61;91.43
77090;BME280;66028;53.558;9.950;2024-01-10T02:12:03;103340.63;;;-5.52;91.56
77090;BME280;66028;53.558;9.950;2024-01-10T02:14:28;103341.03;;;-5.43;91.17
77090;BME280;66028;53.558;9.950;2024-01-10T02:16:54;103333.91;;;-5.40;91.25
77090;BME280;66028;53.558;9.950;2024-01-10T02:19:23;103338.72;;;-5.49;91.34
77090;BME280;66028;53.558;9.950;2024-01-10T02:21:49;103331.06;;;-5.55;91.47
77090;BME280;66028;53.558;9.950;2024-01-10T02:24:14;103324.59;;;-5.48;92.03
77090;BME280;66028;53.558;9.950;2024-01-10T02:26:40;103331.97;;;-5.37;91.75
77090;BME280;66028;53.558;9.950;2024-01-10T02:29:05;103329.34;;;-5.37;91.59
77090;BME280;66028;53.558;9.950;2024-01-10T02:31:30;103324.44;;;-5.45;91.51
77090;BME280;66028;53.558;9.950;2024-01-10T02:33:55;103319.16;;;-5.45;91.99
77090;BME280;66028;53.558;9.950;2024-01-10T02:36:21;103315.50;;;-5.42;91.88
77090;BME280;66028;53.558;9.950;2024-01-10T02:38:46;103329.72;;;-5.45;91.98
77090;BME280;66028;53.558;9.950;2024-01-10T02:41:12;103320.94;;;-5.45;92.05
77090;BME280;66028;53.558;9.950;2024-01-10T02:43:38;103322.34;;;-5.38;91.68
77090;BME280;66028;53.558;9.950;2024-01-10T02:46:03;103325.13;;;-5.41;92.00
77090;BME280;66028;53.558;9.950;2024-01-10T02:48:28;103324.53;;;-5.29;91.76
77090;BME280;66028;53.558;9.950;2024-01-10T02:50:54;103322.34;;;-5.38;91.55
77090;BME280;66028;53.558;9.950;2024-01-10T02:53:20;103317.53;;;-5.30;91.88
77090;BME280;66028;53.558;9.950;2024-01-10T02:55:46;103317.47;;;-5.28;91.39
77090;BME280;66028;53.558;9.950;2024-01-10T02:58:11;103323.13;;;-5.36;91.69
77090;BME280;66028;53.558;9.950;2024-01-10T03:00:36;103321.28;;;-5.34;91.70
77090;BME280;66028;53.558;9.950;2024-01-10T03:03:03;103328.50;;;-5.37;91.77
77090;BME280;66028;53.558;9.950;2024-01-10T03:05:28;103325.31;;;-5.27;92.15
77090;BME280;66028;53.558;9.950;2024-01-10T03:07:53;103327.69;;;-5.21;92.15
77090;BME280;66028;53.558;9.950;2024-01-10T03:10:18;103330.91;;;-5.33;91.73
77090;BME280;66028;53.558;9.950;2024-01-10T03:12:44;103322.06;;;-5.32;92.19
77090;BME280;66028;53.558;9.950;2024-01-10T03:15:09;103325.03;;;-5.21;92.35
77090;BME280;66028;53.558;9.950;2024-01-10T03:17:34;103325.03;;;-5.21;92.19
77090;BME280;66028;53.558;9.950;2024-01-10T03:20:01;103320.69;;;-5.22;91.94
77090;BME280;66028;53.558;9.950;2024-01-10T03:22:26;103316.00;;;-5.17;91.66
77090;BME280;66028;53.558;9.950;2024-01-10T03:24:52;103306.88;;;-5.10;91.43
77090;BME280;66028;53.558;9.950;2024-01-10T03:27:17;103323.88;;;-5.15;91.23
77090;BME280;66028;53.558;9.950;2024-01-10T03:29:42;103315.16;;;-5.17;91.88
77090;BME280;66028;53.558;9.950;2024-01-10T03:32:07;103317.44;;;-5.10;91.53
77090;BME280;66028;53.558;9.950;2024-01-10T03:34:33;103310.66;;;-5.15;91.25
77090;BME280;66028;53.558;9.950;2024-01-10T03:36:58;103307.31;;;-5.19;91.04
77090;BME280;66028;53.558;9.950;2024-01-10T03:39:23;103304.13;;;-5.25;91.15
77090;BME280;66028;53.558;9.950;2024-01-10T03:41:48;103303.84;;;-5.19;91.16
77090;BME280;66028;53.558;9.950;2024-01-10T03:44:14;103301.50;;;-5.25;91.30
77090;BME280;66028;53.558;9.950;2024-01-10T03:46:39;103304.19;;;-5.27;91.01
77090;BME280;66028;53.558;9.950;2024-01-10T03:49:04;103303.19;;;-5.24;90.96
77090;BME280;66028;53.558;9.950;2024-01-10T03:51:30;103298.06;;;-5.27;90.98
77090;BME280;66028;53.558;9.950;2024-01-10T03:53:55;103293.78;;;-5.30;92.09
77090;BME280;66028;53.558;9.950;2024-01-10T03:56:20;103293.72;;;-5.28;91.28
77090;BME280;66028;53.558;9.950;2024-01-10T03:58:46;103294.09;;;-5.36;91.44
77090;BME280;66028;53.558;9.950;2024-01-10T04:01:14;103290.94;;;-5.25;91.67
77090;BME280;66028;53.558;9.950;2024-01-10T04:03:39;103299.31;;;-5.17;91.19
77090;BME280;66028;53.558;9.950;2024-01-10T04:06:07;103296.59;;;-5.16;91.21
77090;BME280;66028;53.558;9.950;2024-01-10T04:08:32;103297.16;;;-5.09;91.03
77090;BME280;66028;53.558;9.950;2024-01-10T04:10:58;103297.16;;;-5.09;90.92
77090;BME280;66028;53.558;9.950;2024-01-10T04:13:23;103301.59;;;-5.10;91.07
77090;BME280;66028;53.558;9.950;2024-01-10T04:15:48;103289.63;;;-4.99;90.91
77090;BME280;66028;53.558;9.950;2024-01-10T04:18:14;103293.50;;;-5.07;90.92
77090;BME280;66028;53.558;9.950;2024-01-10T04:20:39;103289.78;;;-5.02;90.81
77090;BME280;66028;53.558;9.950;2024-01-10T04:23:04;103282.63;;;-5.00;91.11
77090;BME280;66028;53.558;9.950;2024-01-10T04:25:30;103286.06;;;-4.98;90.69
77090;BME280;66028;53.558;9.950;2024-01-10T04:27:55;103281.47;;;-4.95;90.83
77090;BME280;66028;53.558;9.950;2024-01-10T04:30:22;103273.00;;;-4.84;90.79
77090;BME280;66028;53.558;9.950;2024-01-10T04:32:47;103281.16;;;-4.89;90.44
77090;BME280;66028;53.558;9.950;2024-01-10T04:35:12;103278.66;;;-4.92;90.93
77090;BME280;66028;53.558;9.950;2024-01-10T04:37:38;103293.59;;;-4.91;91.15
77090;BME280;66028;53.558;9.950;2024-01-10T04:40:04;103288.63;;;-4.80;91.31
77090;BME280;66028;53.558;9.950;2024-01-10T04:42:30;103290.63;;;-4.67;90.99
77090;BME280;66028;53.558;9.950;2024-01-10T04:44:55;103286.75;;;-4.60;90.46
77090;BME280;66028;53.558;9.950;2024-01-10T04:47:20;103290.31;;;-4.61;90.81
77090;BME280;66028;53.558;9.950;2024-01-10T04:49:46;103279.66;;;-4.60;90.93
77090;BME280;66028;53.558;9.950;2024-01-10T04:52:11;103286.66;;;-4.59;91.38
77090;BME280;66028;53.558;9.950;2024-01-10T04:54:37;103277.91;;;-4.44;90.92
77090;BME280;66028;53.558;9.950;2024-01-10T04:57:02;103275.03;;;-4.39;90.70
77090;BME280;66028;53.558;9.950;2024-01-10T04:59:28;103271.75;;;-4.27;90.50
77090;BME280;66028;53.558;9.950;2024-01-10T05:01:53;103267.69;;;-4.34;91.11
77090;BME280;66028;53.558;9.950;2024-01-10T05:04:18;103270.38;;;-4.18;91.24
77090;BME280;66028;53.558;9.950;2024-01-10T05:06:44;103269.00;;;-4.25;91.01
77090;BME280;66028;53.558;9.950;2024-01-10T05:09:09;103265.59;;;-4.27;90.53
77090;BME280;66028;53.558;9.950;2024-01-10T05:11:35;103267.38;;;-4.28;91.02
77090;BME280;66028;53.558;9.950;2024-01-10T05:14:01;103261.66;;;-4.20;91.19
77090;BME280;66028;53.558;9.950;2024-01-10T05:16:27;103259.09;;;-4.22;90.57
77090;BME280;66028;53.558;9.950;2024-01-10T05:18:53;103261.84;;;-4.23;90.73
77090;BME280;66028;53.558;9.950;2024-01-10T05:21:18;103268.09;;;-4.24;90.72
77090;BME280;66028;53.558;9.950;2024-01-10T05:23:43;103266.66;;;-4.14;90.88
77090;BME280;66028;53.558;9.950;2024-01-10T05:26:09;103267.66;;;-4.17;90.57
77090;BME280;66028;53.558;9.950;2024-01-10T05:28:34;103261.25;;;-4.28;91.00
77090;BME280;66028;53.558;9.950;2024-01-10T05:30:59;103267.38;;;-4.28;90.53
77090;BME280;66028;53.558;9.950;2024-01-10T05:33:25;103259.75;;;-4.34;90.79
77090;BME280;66028;53.558;9.950;2024-01-10T05:35:50;103263.09;;;-4.30;90.75
77090;BME280;66028;53.558;9.950;2024-01-10T05:38:15;103262.31;;;-4.32;90.97
77090;BME280;66028;53.558;9.950;2024-01-10T05:40:41;103264.66;;;-4.26;90.47
77090;BME280;66028;53.558;9.950;2024-01-10T05:43:06;103262.88;;;-4.26;90.74
77090;BME280;66028;53.558;9.950;2024-01-10T05:45:38;103258.88;;;-4.17;90.80
77090;BME280;66028;53.558;9.950;2024-01-10T05:48:04;103269.00;;;-4.25;90.62
77090;BME280;66028;53.558;9.950;2024-01-10T05:50:29;103268.25;;;-4.27;90.82
77090;BME280;66028;53.558;9.950;2024-01-10T05:52:55;103261.00;;;-4.24;90.88
77090;BME280;66028;53.558;9.950;2024-01-10T05:55:20;103264.66;;;-4.26;90.54
77090;BME280;66028;53.558;9.950;2024-01-10T05:57:46;103267.03;;;-4.22;90.90
77090;BME280;66028;53.558;9.950;2024-01-10T06:00:11;103261.66;;;-4.20;90.89
77090;BME280;66028;53.558;9.950;2024-01-10T06:02:40;103259.22;;;-4.23;90.79
77090;BME280;66028;53.558;9.950;2024-01-10T06:05:07;103261.75;;;-4.22;90.40
77090;BME280;66028;53.558;9.950;2024-01-10T06:07:33;103263.81;;;-4.27;90.28
77090;BME280;66028;53.558;9.950;2024-01-10T06:09:59;103262.00;;;-4.26;90.47
77090;BME280;66028;53.558;9.950;2024-01-10T06:12:24;103256.13;;;-4.16;90.48
77090;BME280;66028;53.558;9.950;2024-01-10T06:14:50;103256.31;;;-4.19;90.68
77090;BME280;66028;53.558;9.950;2024-01-10T06:17:15;103262.03;;;-4.11;90.23
77090;BME280;66028;53.558;9.950;2024-01-10T06:19:41;103262.53;;;-4.20;90.09
77090;BME280;66028;53.558;9.950;2024-01-10T06:22:06;103253.66;;;-4.19;90.33
77090;BME280;66028;53.558;9.950;2024-01-10T06:24:31;103259.97;;;-4.21;90.39
77090;BME280;66028;53.558;9.950;2024-01-10T06:26:57;103261.94;;;-4.09;89.82
77090;BME280;66028;53.558;9.950;2024-01-10T06:29:22;103263.13;;;-4.15;89.72
77090;BME280;66028;53.558;9.950;2024-01-10T06:31:47;103253.50;;;-4.16;89.69
77090;BME280;66028;53.558;9.950;2024-01-10T06:34:13;103260.34;;;-4.12;89.10
77090;BME280;66028;53.558;9.950;2024-01-10T06:36:38;103261.44;;;-4.16;89.26
77090;BME280;66028;53.558;9.950;2024-01-10T06:39:03;103258.25;;;-4.22;89.89
77090;BME280;66028;53.558;9.950;2024-01-10T06:41:29;103262.38;;;-4.17;89.84
77090;BME280;66028;53.558;9.950;2024-01-10T06:43:54;103268.09;;;-4.09;89.45
77090;BME280;66028;53.558;9.950;2024-01-10T06:46:20;103261.78;;;-4.06;89.15
77090;BME280;66028;53.558;9.950;2024-01-10T06:48:46;103267.22;;;-4.09;89.62
77090;BME280;66028;53.558;9.950;2024-01-10T06:51:14;103260.22;;;-4.10;88.88
77090;BME280;66028;53.558;9.950;2024-01-10T06:53:40;103272.16;;;-4.19;90.00
77090;BME280;66028;53.558;9.950;2024-01-10T06:56:06;103265.50;;;-4.26;89.42
77090;BME280;66028;53.558;9.950;2024-01-10T06:58:32;103266.97;;;-4.20;89.47
77090;BME280;66028;53.558;9.950;2024-01-10T07:00:58;103267.72;;;-4.18;89.79
77090;BME280;66028;53.558;9.950;2024-01-10T07:03:25;103257.94;;;-4.16;90.32
77090;BME280;66028;53.558;9.950;2024-01-10T07:05:52;103264.38;;;-4.22;90.02
77090;BME280;66028;53.558;9.950;2024-01-10T07:08:19;103264.31;;;-4.20;90.56
77090;BME280;66028;53.558;9.950;2024-01-10T07:10:44;103260.75;;;-4.04;90.12
77090;BME280;66028;53.558;9.950;2024-01-10T07:13:10;103259.28;;;-4.09;89.22
77090;BME280;66028;53.558;9.950;2024-01-10T07:15:36;103262.22;;;-4.14;89.62
77090;BME280;66028;53.558;9.950;2024-01-10T07:18:01;103256.47;;;-4.06;90.04
77090;BME280;66028;53.558;9.950;2024-01-10T07:20:26;103254.38;;;-4.00;89.77
77090;BME280;66028;53.558;9.950;2024-01-10T07:22:51;103259.66;;;-4.00;89.14
77090;BME280;66028;53.558;9.950;2024-01-10T07:25:17;103258.97;;;-4.03;89.25
77090;BME280;66028;53.558;9.950;2024-01-10T07:27:43;103256.91;;;-3.98;89.60
77090;BME280;66028;53.558;9.950;2024-01-10T07:30:09;103262.31;;;-4.00;88.98
77090;BME280;66028;53.558;9.950;2024-01-10T07:32:44;103267.59;;;-4.00;89.54
77090;BME280;66028;53.558;9.950;2024-01-10T07:35:11;103271.50;;;-4.07;89.51
77090;BME280;66028;53.558;9.950;2024-01-10T07:37:40;103263.75;;;-3.94;89.80
77090;BME280;66028;53.558;9.950;2024-01-10T07:40:09;103263.44;;;-3.88;89.64
77090;BME280;66028;53.558;9.950;2024-01-10T07:42:36;103266.66;;;-3.83;89.47
77090;BME280;66028;53.558;9.950;2024-01-10T07:45:02;103265.03;;;-3.85;88.87
77090;BME280;66028;53.558;9.950;2024-01-10T07:47:31;103267.88;;;-3.88;89.13
77090;BME280;66028;53.558;9.950;2024-01-10T07:49:57;103265.22;;;-3.88;88.55
77090;BME280;66028;53.558;9.950;2024-01-10T07:52:23;103268.28;;;-3.96;89.05
77090;BME280;66028;53.558;9.950;2024-01-10T07:54:48;103260.53;;;-3.99;89.07
77090;BME280;66028;53.558;9.950;2024-01-10T07:57:13;103270.34;;;-4.01;89.18
77090;BME280;66028;53.558;9.950;2024-01-10T07:59:39;103266.22;;;-4.07;88.94
77090;BME280;66028;53.558;9.950;2024-01-10T08:02:04;103267.00;;;-4.05;88.75
77090;BME280;66028;53.558;9.950;2024-01-10T08:04:29;103269.03;;;-3.94;88.93
77090;BME280;66028;53.558;9.950;2024-01-10T08:06:55;103267.25;;;-3.93;89.73
77090;BME280;66028;53.558;9.950;2024-01-10T08:09:21;103273.75;;;-3.83;89.24
77090;BME280;66028;53.558;9.950;2024-01-10T08:11:46;103279.53;;;-3.92;88.79
77090;BME280;66028;53.558;9.950;2024-01-10T08:14:11;103284.69;;;-3.89;89.20
77090;BME280;66028;53.558;9.950;2024-01-10T08:16:37;103287.25;;;-3.88;89.64
77090;BME280;66028;53.558;9.950;2024-01-10T08:19:02;103291.09;;;-3.78;89.12
77090;BME280;66028;53.558;9.950;2024-01-10T08:21:27;103298.34;;;-3.81;88.92
77090;BME280;66028;53.558;9.950;2024-01-10T08:23:53;103278.94;;;-3.82;88.69
77090;BME280;66028;53.558;9.950;2024-01-10T08:26:18;103289.47;;;-3.80;88.39
77090;BME280;66028;53.558;9.950;2024-01-10T08:28:43;103279.38;;;-3.89;88.84
77090;BME280;66028;53.558;9.950;2024-01-10T08:31:08;103280.81;;;-3.84;88.64
77090;BME280;66028;53.558;9.950;2024-01-10T08:33:34;103282.38;;;-3.80;88.78
77090;BME280;66028;53.558;9.950;2024-01-10T08:35:59;103285.44;;;-3.72;89.19
77090;BME280;66028;53.558;9.950;2024-01-10T08:38:25;103290.72;;;-3.72;89.00
77090;BME280;66028;53.558;9.950;2024-01-10T08:40:50;103290.94;;;-3.75;88.65
77090;BME280;66028;53.558;9.950;2024-01-10T08:43:15;103284.59;;;-3.72;88.60
77090;BME280;66028;53.558;9.950;2024-01-10T08:45:40;103287.22;;;-3.72;88.54
77090;BME280;66028;53.558;9.950;2024-01-10T08:48:06;103282.53;;;-3.67;88.44
77090;BME280;66028;53.558;9.950;2024-01-10T08:50:35;103281.44;;;-3.63;88.76
77090;BME280;66028;53.558;9.950;2024-01-10T08:53:01;103287.41;;;-3.59;88.87
77090;BME280;66028;53.558;9.950;2024-01-10T08:55:30;103281.25;;;-3.60;88.83
77090;BME280;66028;53.558;9.950;2024-01-10T08:57:55;103279.81;;;-3.66;88.34
77090;BME280;66028;53.558;9.950;2024-01-10T09:00:20;103281.69;;;-3.68;88.87
77090;BME280;66028;53.558;9.950;2024-01-10T09:02:47;103283.81;;;-3.58;88.40
77090;BME280;66028;53.558;9.950;2024-01-10T09:05:12;103287.94;;;-3.53;88.50
77090;BME280;66028;53.558;9.950;2024-01-10T09:07:38;103278.97;;;-3.50;88.31
77090;BME280;66028;53.558;9.950;2024-01-10T09:10:04;103275.00;;;-3.43;88.49
77090;BME280;66028;53.558;9.950;2024-01-10T09:12:30;103263.06;;;-3.50;88.99
77090;BME280;66028;53.558;9.950;2024-01-10T09:14:56;103254.16;;;-3.49;88.51
77090;BME280;66028;53.558;9.950;2024-01-10T09:17:21;103262.63;;;-3.43;88.65
77090;BME280;66028;53.558;9.950;2024-01-10T09:19:46;103266.28;;;-3.30;88.93
77090;BME280;66028;53.558;9.950;2024-01-10T09:22:11;103263.31;;;-3.39;88.31
77090;BME280;66028;53.558;9.950;2024-01-10T09:24:38;103249.28;;;-3.41;88.25
77090;BME280;66028;53.558;9.950;2024-01-10T09:27:04;103249.56;;;-3.46;88.20
77090;BME280;66028;53.558;9.950;2024-01-10T09:29:30;103242.06;;;-3.23;87.96
77090;BME280;66028;53.558;9.950;2024-01-10T09:31:56;103247.06;;;-3.33;87.27
77090;BME280;66028;53.558;9.950;2024-01-10T09:34:22;103243.22;;;-3.28;87.28
77090;BME280;66028;53.558;9.950;2024-01-10T09:36:47;103248.69;;;-3.31;86.80
77090;BME280;66028;53.558;9.950;2024-01-10T09:39:13;103246.81;;;-3.44;87.39
77090;BME280;66028;53.558;9.950;2024-01-10T09:41:46;103253.13;;;-3.47;87.24
77090;BME280;66028;53.558;9.950;2024-01-10T09:44:13;103244.88;;;-3.56;87.60
77090;BME280;66028;53.558;9.950;2024-01-10T09:46:39;103250.22;;;-3.42;87.28
77090;BME280;66028;53.558;9.950;2024-01-10T09:49:05;103239.97;;;-3.33;87.18
77090;BME280;66028;53.558;9.950;2024-01-10T09:51:33;103243.50;;;-3.18;86.39
77090;BME280;66028;53.558;9.950;2024-01-10T09:53:59;103237.97;;;-2.99;86.73
77090;BME280;66028;53.558;9.950;2024-01-10T09:56:27;103244.81;;;-2.95;86.64
77090;BME280;66028;53.558;9.950;2024-01-10T09:58:53;103241.69;;;-2.87;86.23
77090;BME280;66028;53.558;9.950;2024-01-10T10:01:20;103241.88;;;-2.76;85.98
77090;BME280;66028;53.558;9.950;2024-01-10T10:03:48;103243.78;;;-2.64;85.33
77090;BME280;66028;53.558;9.950;2024-01-10T10:06:13;103245.59;;;-2.65;85.15
77090;BME280;66028;53.558;9.950;2024-01-10T10:08:39;103243.72;;;-2.48;84.16
77090;BME280;66028;53.558;9.950;2024-01-10T10:11:07;103248.56;;;-2.55;84.00
77090;BME280;66028;53.558;9.950;2024-01-10T10:13:32;103247.59;;;-2.68;84.07
77090;BME280;66028;53.558;9.950;2024-01-10T10:16:02;103246.66;;;-2.53;84.03
77090;BME280;66028;53.558;9.950;2024-01-10T10:18:28;103242.38;;;-2.27;83.46
77090;BME280;66028;53.558;9.950;2024-01-10T10:21:10;103245.34;;;-2.17;81.62
77090;BME280;66028;53.558;9.950;2024-01-10T10:23:40;103234.06;;;-2.49;82.11
77090;BME280;66028;53.558;9.950;2024-01-10T10:26:13;103240.78;;;-2.72;82.39
77090;BME280;66028;53.558;9.950;2024-01-10T10:28:44;103238.63;;;-2.66;82.84
77090;BME280;66028;53.558;9.950;2024-01-10T10:31:09;103239.25;;;-2.76;83.01
77090;BME280;66028;53.558;9.950;2024-01-10T10:33:36;103239.66;;;-2.68;83.32
77090;BME280;66028;53.558;9.950;2024-01-10T10:36:01;103243.06;;;-2.66;82.32
77090;BME280;66028;53.558;9.950;2024-01-10T10:38:26;103241.34;;;-2.81;82.21
77090;BME280;66028;53.558;9.950;2024-01-10T10:40:52;103242.78;;;-3.06;83.74
77090;BME280;66028;53.558;9.950;2024-01-10T10:43:19;103245.44;;;-3.06;83.98
77090;BME280;66028;53.558;9.950;2024-01-10T10:45:48;103246.25;;;-3.19;84.20
77090;BME280;66028;53.558;9.950;2024-01-10T10:48:18;103241.41;;;-3.27;84.41
77090;BME280;66028;53.558;9.950;2024-01-10T10:50:59;103248.13;;;-3.21;84.35
77090;BME280;66028;53.558;9.950;2024-01-10T10:53:29;103253.56;;;-3.39;84.65
77090;BME280;66028;53.558;9.950;2024-01-10T10:55:56;103263.53;;;-3.28;84.74
77090;BME280;66028;53.558;9.950;2024-01-10T10:58:22;103258.88;;;-3.39;85.47
77090;BME280;66028;53.558;9.950;2024-01-10T11:00:47;103251.66;;;-3.37;84.93
77090;BME280;66028;53.558;9.950;2024-01-10T11:03:14;103256.63;;;-3.31;85.30
77090;BME280;66028;53.558;9.950;2024-01-10T11:05:41;103256.59;;;-3.15;85.68
77090;BME280;66028;53.558;9.950;2024-01-10T11:08:09;103255.88;;;-3.03;84.52
77090;BME280;66028;53.558;9.950;2024-01-10T11:10:37;103250.50;;;-2.87;83.66
77090;BME280;66028;53.558;9.950;2024-01-10T11:13:26;103248.84;;;-2.60;82.96
77090;BME280;66028;53.558;9.950;2024-01-10T11:16:23;103244.56;;;-2.48;82.20
77090;BME280;66028;53.558;9.950;2024-01-10T11:21:55;103244.41;;;-2.45;80.40
77090;BME280;66028;53.558;9.950;2024-01-10T11:24:24;103251.34;;;-2.86;82.01
77090;BME280;66028;53.558;9.950;2024-01-10T11:26:50;103253.16;;;-2.87;82.46
77090;BME280;66028;53.558;9.950;2024-01-10T11:29:15;103236.09;;;-2.97;82.78
77090;BME280;66028;53.558;9.950;2024-01-10T11:31:40;103238.25;;;-2.90;82.48
77090;BME280;66028;53.558;9.950;2024-01-10T11:34:06;103241.78;;;-2.89;82.38
77090;BME280;66028;53.558;9.950;2024-01-10T11:36:31;103238.66;;;-2.96;82.21
77090;BME280;66028;53.558;9.950;2024-01-10T11:39:04;103235.69;;;-3.05;81.92
77090;BME280;66028;53.558;9.950;2024-01-10T11:41:34;103243.13;;;-3.12;82.11
77090;BME280;66028;53.558;9.950;2024-01-10T11:46:34;103235.22;;;-2.98;82.40
77090;BME280;66028;53.558;9.950;2024-01-10T11:48:59;103237.31;;;-3.03;82.17
77090;BME280;66028;53.558;9.950;2024-01-10T11:51:25;103232.88;;;-3.02;82.15
77090;BME280;66028;53.558;9.950;2024-01-10T11:53:50;103235.00;;;-3.09;82.49
77090;BME280;66028;53.558;9.950;2024-01-10T11:56:17;103230.78;;;-2.97;82.76
77090;BME280;66028;53.558;9.950;2024-01-10T11:59:01;103223.00;;;-3.00;82.78
77090;BME280;66028;53.558;9.950;2024-01-10T12:01:27;103233.81;;;-3.03;83.13
77090;BME280;66028;53.558;9.950;2024-01-10T12:03:53;103232.75;;;-3.01;82.70
77090;BME280;66028;53.558;9.950;2024-01-10T12:06:21;103233.53;;;-2.99;82.82
77090;BME280;66028;53.558;9.950;2024-01-10T12:08:47;103225.13;;;-2.91;83.14
77090;BME280;66028;53.558;9.950;2024-01-10T12:11:13;103235.28;;;-2.69;82.63
77090;BME280;66028;53.558;9.950;2024-01-10T12:13:38;103228.00;;;-2.66;81.53
77090;BME280;66028;53.558;9.950;2024-01-10T12:16:04;103218.53;;;-2.70;81.62
77090;BME280;66028;53.558;9.950;2024-01-10T12:18:30;103223.53;;;-2.51;80.48
77090;BME280;66028;53.558;9.950;2024-01-10T12:20:55;103225.53;;;-2.40;79.53
77090;BME280;66028;53.558;9.950;2024-01-10T12:23:20;103222.00;;;-2.41;80.30
77090;BME280;66028;53.558;9.950;2024-01-10T12:25:48;103219.00;;;-2.21;80.09
77090;BME280;66028;53.558;9.950;2024-01-10T12:28:16;103211.56;;;-2.15;79.78
77090;BME280;66028;53.558;9.950;2024-01-10T12:30:42;103206.03;;;-1.84;78.37
77090;BME280;66028;53.558;9.950;2024-01-10T12:33:08;103204.13;;;-1.82;77.88
77090;BME280;66028;53.558;9.950;2024-01-10T12:35:34;103199.53;;;-2.07;78.62
77090;BME280;66028;53.558;9.950;2024-01-10T12:37:59;103196.44;;;-2.28;79.57
77090;BME280;66028;53.558;9.950;2024-01-10T12:40:24;103199.00;;;-2.40;79.79
77090;BME280;66028;53.558;9.950;2024-01-10T12:43:01;103197.00;;;-2.37;80.78
77090;BME280;66028;53.558;9.950;2024-01-10T12:45:27;103197.44;;;-2.02;79.23
77090;BME280;66028;53.558;9.950;2024-01-10T12:47:53;103192.22;;;-2.03;79.50
77090;BME280;66028;53.558;9.950;2024-01-10T12:50:19;103195.53;;;-2.00;79.46